Time;durP1;ratioP1;P1;durP2;ratioP2;P2;SDS_P1;SDS_P2;PMS_P1;PMS_P2;Temp;Humidity;BMP_temperature;BMP_pressure;BME280_temperature;BME280_humidity;BME280_pressure;Samples;Min_cycle;Max_cycle;Signal;HPM_P1;HPM_P2
2022/12/14 00:00:20;;;;;;;12.13;9.60;;;;;;;;;;4999796;28;20983;-89
2022/12/14 00:02:46;;;;;;;16.33;9.40;;;;;;;;;;5012728;28;20423;-88
2022/12/14 00:05:14;;;;;;;16.00;9.30;;;;;;;;;;4995721;28;20427;-88
2022/12/14 00:07:40;;;;;;;11.43;7.10;;;;;;;;;;5001340;28;20753;-89
2022/12/14 00:10:06;;;;;;;24.60;13.77;;;;;;;;;;5004343;28;20429;-87
2022/12/14 00:12:32;;;;;;;15.07;9.83;;;;;;;;;;5006095;28;20421;-89
2022/12/14 00:14:58;;;;;;;11.60;10.20;;;;;;;;;;5013865;28;20907;-89
2022/12/14 00:17:25;;;;;;;22.20;10.70;;;;;;;;;;5020815;28;20457;-89
2022/12/14 00:19:50;;;;;;;20.53;10.67;;;;;;;;;;5031423;28;20476;-89
2022/12/14 00:22:16;;;;;;;16.00;10.00;;;;;;;;;;5012922;28;20414;-86
2022/12/14 00:24:42;;;;;;;10.90;8.40;;;;;;;;;;5024610;28;20407;-87
2022/12/14 00:27:08;;;;;;;14.20;11.17;;;;;;;;;;5020983;28;20945;-88
2022/12/14 00:29:34;;;;;;;20.30;11.27;;;;;;;;;;5024989;28;20421;-89
2022/12/14 00:32:00;;;;;;;12.97;7.80;;;;;;;;;;5020835;28;20417;-86
2022/12/14 00:34:29;;;;;;;10.13;8.40;;;;;;;;;;5021051;28;20425;-90
2022/12/14 00:36:55;;;;;;;17.60;12.07;;;;;;;;;;5025969;28;20468;-91
2022/12/14 00:39:21;;;;;;;14.93;10.70;;;;;;;;;;5031701;28;20958;-89
2022/12/14 00:41:47;;;;;;;17.77;8.43;;;;;;;;;;5018082;28;20407;-89
2022/12/14 00:44:13;;;;;;;12.37;8.90;;;;;;;;;;5024353;28;20453;-90
2022/12/14 00:46:39;;;;;;;12.27;8.67;;;;;;;;;;5021425;28;20501;-87
2022/12/14 00:49:05;;;;;;;16.60;10.30;;;;;;;;;;5022146;28;20505;-88
2022/12/14 00:51:33;;;;;;;15.30;9.30;;;;;;;;;;5022181;28;20476;-90
2022/12/14 00:53:59;;;;;;;15.97;7.90;;;;;;;;;;5029157;28;20777;-87
2022/12/14 00:56:25;;;;;;;8.73;7.77;;;;;;;;;;5035017;28;20418;-86
2022/12/14 00:58:52;;;;;;;16.30;9.10;;;;;;;;;;5022804;28;20458;-89
2022/12/14 01:01:18;;;;;;;12.53;9.97;;;;;;;;;;5037919;28;20432;-91
2022/12/14 01:03:44;;;;;;;20.17;9.23;;;;;;;;;;5011365;28;20466;-90
2022/12/14 01:06:14;;;;;;;13.70;8.53;;;;;;;;;;5010700;28;20418;-90
2022/12/14 01:08:40;;;;;;;19.77;9.70;;;;;;;;;;5024288;28;20462;-89
2022/12/14 01:11:07;;;;;;;13.97;9.47;;;;;;;;;;5014298;28;20422;-89
2022/12/14 01:13:33;;;;;;;11.33;9.03;;;;;;;;;;5016808;28;20510;-89
2022/12/14 01:16:09;;;;;;;14.47;11.13;;;;;;;;;;5026010;28;20471;-90
2022/12/14 01:18:35;;;;;;;16.33;12.20;;;;;;;;;;5036367;28;20482;-88
2022/12/14 01:21:10;;;;;;;10.33;7.90;;;;;;;;;;5036094;28;20768;-91
2022/12/14 01:23:36;;;;;;;10.27;9.27;;;;;;;;;;5007199;28;20410;-88
2022/12/14 01:26:03;;;;;;;15.97;9.70;;;;;;;;;;5022937;28;20425;-90
2022/12/14 01:28:29;;;;;;;12.10;6.93;;;;;;;;;;5019650;28;20780;-88
2022/12/14 01:30:54;;;;;;;15.97;7.47;;;;;;;;;;5010859;28;20421;-91
2022/12/14 01:33:20;;;;;;;11.33;7.33;;;;;;;;;;5032328;28;20422;-90
2022/12/14 01:35:46;;;;;;;11.60;8.03;;;;;;;;;;5035854;28;20417;-90
2022/12/14 01:38:12;;;;;;;15.43;10.40;;;;;;;;;;5037786;28;20421;-88
2022/12/14 01:40:38;;;;;;;10.03;8.17;;;;;;;;;;5041039;28;20421;-87
2022/12/14 01:43:09;;;;;;;15.07;9.33;;;;;;;;;;5036856;28;20412;-89
2022/12/14 01:45:35;;;;;;;14.50;9.03;;;;;;;;;;5036347;28;20425;-90
2022/12/14 01:48:02;;;;;;;8.50;5.60;;;;;;;;;;5018110;28;20421;-90
2022/12/14 01:50:30;;;;;;;11.00;6.93;;;;;;;;;;5036688;28;20910;-89
2022/12/14 01:52:59;;;;;;;9.93;6.07;;;;;;;;;;5018671;28;20501;-89
2022/12/14 01:55:42;;;;;;;8.83;5.27;;;;;;;;;;5018857;28;20424;-90
2022/12/14 01:58:12;;;;;;;9.47;8.13;;;;;;;;;;5018692;28;20776;-88
2022/12/14 02:00:38;;;;;;;21.03;11.93;;;;;;;;;;5018426;28;20417;-90
2022/12/14 02:03:14;;;;;;;9.87;7.63;;;;;;;;;;5035010;28;20417;-87
2022/12/14 02:05:42;;;;;;;10.07;9.10;;;;;;;;;;5018544;28;20919;-87
2022/12/14 02:08:08;;;;;;;24.10;11.50;;;;;;;;;;5035869;28;20402;-86
2022/12/14 02:10:34;;;;;;;13.10;8.93;;;;;;;;;;5035326;28;20417;-86
2022/12/14 02:13:09;;;;;;;9.93;8.43;;;;;;;;;;5035471;28;20772;-83
2022/12/14 02:15:35;;;;;;;12.77;7.90;;;;;;;;;;5034966;28;20436;-83
2022/12/14 02:18:03;;;;;;;12.67;9.10;;;;;;;;;;5035072;28;20507;-87
2022/12/14 02:20:33;;;;;;;15.30;5.93;;;;;;;;;;5034818;28;20413;-83
2022/12/14 02:23:02;;;;;;;11.37;8.53;;;;;;;;;;5035378;28;20406;-87
2022/12/14 02:25:37;;;;;;;9.87;7.63;;;;;;;;;;5038680;28;20448;-87
2022/12/14 02:28:21;;;;;;;9.73;7.77;;;;;;;;;;5035390;28;20397;-87
2022/12/14 02:30:52;;;;;;;9.37;7.93;;;;;;;;;;5017324;28;20409;-87
2022/12/14 02:33:30;;;;;;;12.63;8.50;;;;;;;;;;5035637;28;20413;-87
2022/12/14 02:36:01;;;;;;;13.87;10.27;;;;;;;;;;5017716;28;20425;-88
2022/12/14 02:38:32;;;;;;;14.23;10.40;;;;;;;;;;5035451;28;20544;-88
2022/12/14 02:40:58;;;;;;;10.50;6.13;;;;;;;;;;5038497;28;20416;-86
2022/12/14 02:43:39;;;;;;;15.43;8.63;;;;;;;;;;5023589;28;20477;-88
2022/12/14 02:46:24;;;;;;;10.57;9.20;;;;;;;;;;5021854;28;20420;-88
2022/12/14 02:49:09;;;;;;;11.50;7.93;;;;;;;;;;5021504;28;20456;-89
2022/12/14 02:51:54;;;;;;;10.20;7.57;;;;;;;;;;5021367;28;20421;-87
2022/12/14 02:54:24;;;;;;;12.67;7.17;;;;;;;;;;5034927;28;20413;-83
2022/12/14 02:56:53;;;;;;;7.87;6.57;;;;;;;;;;5018813;28;20471;-90
2022/12/14 02:59:19;;;;;;;16.00;10.23;;;;;;;;;;5015964;28;20472;-90
2022/12/14 03:01:47;;;;;;;10.23;6.33;;;;;;;;;;5034535;28;20486;-91
2022/12/14 03:04:13;;;;;;;21.23;10.40;;;;;;;;;;5017578;28;20487;-89
2022/12/14 03:06:39;;;;;;;10.97;7.53;;;;;;;;;;5033312;28;20425;-86
2022/12/14 03:09:07;;;;;;;10.17;8.10;;;;;;;;;;5017417;28;20479;-89
2022/12/14 03:11:45;;;;;;;12.47;9.93;;;;;;;;;;5035358;28;20413;-92
2022/12/14 03:14:16;;;;;;;16.73;7.27;;;;;;;;;;5017196;28;20429;-90
2022/12/14 03:16:44;;;;;;;6.87;6.17;;;;;;;;;;5017417;28;20472;-90
2022/12/14 03:19:15;;;;;;;13.40;9.63;;;;;;;;;;5017327;28;20863;-90
2022/12/14 03:21:43;;;;;;;12.87;7.30;;;;;;;;;;5017296;28;20893;-90
2022/12/14 03:24:12;;;;;;;11.60;8.97;;;;;;;;;;5017652;28;20426;-90
2022/12/14 03:26:40;;;;;;;10.67;8.63;;;;;;;;;;5017243;28;20475;-91
2022/12/14 03:29:16;;;;;;;9.77;6.53;;;;;;;;;;5017418;28;20425;-90
2022/12/14 03:31:45;;;;;;;12.87;9.80;;;;;;;;;;5017492;28;20424;-92
2022/12/14 03:34:13;;;;;;;11.43;7.23;;;;;;;;;;5017267;28;20429;-91
2022/12/14 03:36:51;;;;;;;12.23;9.47;;;;;;;;;;5016995;28;20476;-91
2022/12/14 03:39:24;;;;;;;10.60;8.00;;;;;;;;;;5017263;28;20839;-90
2022/12/14 03:41:58;;;;;;;14.33;8.20;;;;;;;;;;5017400;28;20894;-90
2022/12/14 03:44:38;;;;;;;11.77;8.07;;;;;;;;;;5016984;28;20418;-87
2022/12/14 03:47:23;;;;;;;21.37;8.60;;;;;;;;;;5017321;28;20535;-90
2022/12/14 03:49:55;;;;;;;6.90;5.57;;;;;;;;;;5017018;28;20421;-91
2022/12/14 03:52:35;;;;;;;18.33;8.50;;;;;;;;;;5028592;28;20417;-89
2022/12/14 03:55:06;;;;;;;15.93;8.10;;;;;;;;;;5038698;28;20460;-89
2022/12/14 03:57:32;;;;;;;13.57;9.47;;;;;;;;;;5000766;28;20525;-89
2022/12/14 04:00:12;;;;;;;9.27;8.30;;;;;;;;;;5021951;28;20556;-89
2022/12/14 04:02:42;;;;;;;7.43;5.97;;;;;;;;;;4997232;28;20430;-89
2022/12/14 04:05:11;;;;;;;10.53;9.17;;;;;;;;;;5005757;28;20921;-90
2022/12/14 04:07:41;;;;;;;13.97;7.90;;;;;;;;;;5013737;28;20461;-90
2022/12/14 04:18:55;;;;;;;17.30;11.30;;;;;;;;;;5013497;28;20413;-89
2022/12/14 04:18:59;;;;;;;14.43;11.20;;;;;;;;;;5023740;28;20464;-90
2022/12/14 04:21:32;;;;;;;8.87;7.97;;;;;;;;;;5023244;28;20457;-89
2022/12/14 04:26:51;;;;;;;8.10;7.30;;;;;;;;;;5024668;28;20416;-89
2022/12/14 04:32:13;;;;;;;10.83;8.90;;;;;;;;;;5014898;28;20406;-91
2022/12/14 04:34:39;;;;;;;8.50;6.20;;;;;;;;;;5013643;28;20419;-91
2022/12/14 04:37:08;;;;;;;15.00;9.77;;;;;;;;;;5013611;28;20426;-90
2022/12/14 04:39:36;;;;;;;19.27;10.83;;;;;;;;;;5014272;28;20480;-90
2022/12/14 04:42:05;;;;;;;7.43;5.97;;;;;;;;;;5013754;28;20442;-86
2022/12/14 04:44:34;;;;;;;9.37;8.27;;;;;;;;;;5012966;28;20433;-92
2022/12/14 04:47:00;;;;;;;9.60;7.70;;;;;;;;;;5013560;28;20420;-90
2022/12/14 04:49:29;;;;;;;8.27;7.60;;;;;;;;;;5013546;28;20418;-89
2022/12/14 04:52:00;;;;;;;8.80;7.90;;;;;;;;;;5013389;28;20414;-92
2022/12/14 04:54:52;;;;;;;22.03;9.70;;;;;;;;;;5013199;28;20517;-84
2022/12/14 04:57:18;;;;;;;9.93;7.30;;;;;;;;;;4994224;28;20831;-92
2022/12/14 04:59:44;;;;;;;7.53;6.57;;;;;;;;;;5013798;28;20616;-90
2022/12/14 05:02:16;;;;;;;9.50;8.47;;;;;;;;;;5013422;28;20418;-92
2022/12/14 05:04:56;;;;;;;12.53;8.23;;;;;;;;;;5013276;28;20770;-90
2022/12/14 05:07:25;;;;;;;6.67;4.57;;;;;;;;;;5013235;28;20564;-91
2022/12/14 05:09:51;;;;;;;13.30;8.70;;;;;;;;;;5013149;28;20426;-91
2022/12/14 05:12:20;;;;;;;9.77;7.20;;;;;;;;;;5014376;28;20406;-92
2022/12/14 05:14:49;;;;;;;10.87;7.43;;;;;;;;;;5012736;28;20422;-91
2022/12/14 05:17:16;;;;;;;9.13;6.77;;;;;;;;;;5012895;28;20470;-92
2022/12/14 05:19:45;;;;;;;14.73;9.00;;;;;;;;;;5025638;28;20484;-89
2022/12/14 05:22:11;;;;;;;8.90;6.87;;;;;;;;;;5025820;28;20526;-89
2022/12/14 05:24:37;;;;;;;10.50;7.30;;;;;;;;;;5018663;28;20452;-91
2022/12/14 05:27:03;;;;;;;11.30;7.57;;;;;;;;;;5018588;28;20437;-88
2022/12/14 05:29:29;;;;;;;9.93;5.67;;;;;;;;;;5019977;28;20513;-84
2022/12/14 05:31:55;;;;;;;12.43;7.60;;;;;;;;;;5017035;28;20508;-88
2022/12/14 05:34:24;;;;;;;12.53;7.33;;;;;;;;;;5016345;28;20464;-89
2022/12/14 05:36:50;;;;;;;13.20;9.20;;;;;;;;;;5017245;28;20406;-88
2022/12/14 05:39:16;;;;;;;20.77;10.23;;;;;;;;;;5015828;28;21040;-89
2022/12/14 05:41:45;;;;;;;7.90;6.60;;;;;;;;;;5016892;28;20564;-89
2022/12/14 05:44:11;;;;;;;15.73;8.97;;;;;;;;;;5015376;28;20922;-88
2022/12/14 05:46:37;;;;;;;9.03;7.17;;;;;;;;;;5016960;28;20402;-88
2022/12/14 05:49:03;;;;;;;12.97;9.13;;;;;;;;;;5016826;28;20402;-88
2022/12/14 05:51:29;;;;;;;10.07;8.27;;;;;;;;;;5016857;28;20870;-87
2022/12/14 05:53:56;;;;;;;13.63;9.67;;;;;;;;;;5015707;28;20462;-89
2022/12/14 05:56:22;;;;;;;18.87;10.30;;;;;;;;;;5015593;28;20453;-89
2022/12/14 05:58:49;;;;;;;10.37;7.97;;;;;;;;;;5015395;28;20465;-89
2022/12/14 06:01:15;;;;;;;14.43;7.53;;;;;;;;;;5015590;28;20430;-86
2022/12/14 06:03:43;;;;;;;9.43;7.83;;;;;;;;;;5015534;28;20430;-87
2022/12/14 06:06:11;;;;;;;13.37;8.00;;;;;;;;;;5015712;28;20459;-89
2022/12/14 06:08:38;;;;;;;9.63;6.77;;;;;;;;;;5015725;28;20437;-88
2022/12/14 06:11:07;;;;;;;8.77;6.90;;;;;;;;;;5015532;28;20426;-89
2022/12/14 06:13:40;;;;;;;9.40;5.77;;;;;;;;;;5016177;28;20502;-89
2022/12/14 06:16:07;;;;;;;11.73;6.97;;;;;;;;;;5015484;28;20438;-89
2022/12/14 06:18:33;;;;;;;7.20;6.70;;;;;;;;;;5015110;28;21049;-89
2022/12/14 06:20:59;;;;;;;12.60;7.47;;;;;;;;;;5015425;28;20458;-90
2022/12/14 06:23:25;;;;;;;11.83;6.00;;;;;;;;;;5016504;28;20441;-90
2022/12/14 06:25:55;;;;;;;11.47;7.93;;;;;;;;;;5015412;28;20981;-91
2022/12/14 06:28:21;;;;;;;9.93;8.47;;;;;;;;;;5015913;28;20930;-90
2022/12/14 06:30:50;;;;;;;10.80;4.07;;;;;;;;;;5016337;28;20468;-89
2022/12/14 06:33:16;;;;;;;7.47;5.00;;;;;;;;;;5015071;28;20786;-90
2022/12/14 06:35:45;;;;;;;12.43;7.30;;;;;;;;;;5015193;28;20505;-90
2022/12/14 06:38:12;;;;;;;10.57;6.07;;;;;;;;;;5014948;28;20513;-89
2022/12/14 06:40:38;;;;;;;9.20;8.40;;;;;;;;;;5015000;28;20988;-90
2022/12/14 06:43:04;;;;;;;11.97;7.07;;;;;;;;;;5014573;28;20426;-89
2022/12/14 06:45:30;;;;;;;12.87;7.20;;;;;;;;;;5014863;28;20429;-90
2022/12/14 06:47:57;;;;;;;11.40;8.00;;;;;;;;;;5026008;28;20386;-88
2022/12/14 06:50:23;;;;;;;7.60;6.50;;;;;;;;;;5022491;28;20512;-88
2022/12/14 06:52:49;;;;;;;10.20;7.40;;;;;;;;;;5014640;28;20489;-91
2022/12/14 06:55:15;;;;;;;12.87;7.90;;;;;;;;;;5014547;28;20422;-91
2022/12/14 06:57:41;;;;;;;9.57;7.43;;;;;;;;;;5015923;28;20464;-92
2022/12/14 07:00:11;;;;;;;5.03;4.53;;;;;;;;;;5014526;28;20478;-92
2022/12/14 07:02:36;;;;;;;6.20;5.63;;;;;;;;;;5014728;28;21162;-91
2022/12/14 07:05:02;;;;;;;12.17;8.93;;;;;;;;;;5015008;28;20422;-91
2022/12/14 07:07:45;;;;;;;10.13;6.50;;;;;;;;;;5014048;28;20414;-89
2022/12/14 07:10:17;;;;;;;9.13;7.00;;;;;;;;;;5014184;28;20781;-88
2022/12/14 07:12:44;;;;;;;11.07;6.73;;;;;;;;;;5014356;28;20422;-89
2022/12/14 07:15:12;;;;;;;9.80;6.50;;;;;;;;;;4997996;28;20503;-90
2022/12/14 07:17:43;;;;;;;9.00;8.20;;;;;;;;;;5014305;28;20994;-89
2022/12/14 07:20:09;;;;;;;9.80;7.13;;;;;;;;;;5013547;28;20519;-90
2022/12/14 07:22:37;;;;;;;15.33;10.53;;;;;;;;;;5015330;28;20452;-89
2022/12/14 07:25:03;;;;;;;8.30;7.33;;;;;;;;;;5015581;28;20422;-92
2022/12/14 07:27:30;;;;;;;9.93;7.03;;;;;;;;;;5014360;28;20414;-87
2022/12/14 07:29:56;;;;;;;13.00;7.70;;;;;;;;;;5014012;28;20455;-91
2022/12/14 07:32:22;;;;;;;6.47;5.63;;;;;;;;;;5015613;28;20418;-90
2022/12/14 07:34:48;;;;;;;16.07;9.50;;;;;;;;;;4997357;28;20946;-87
2022/12/14 07:37:14;;;;;;;8.80;7.97;;;;;;;;;;4997655;28;20422;-92
2022/12/14 07:39:43;;;;;;;6.90;5.60;;;;;;;;;;5024842;28;20477;-90
2022/12/14 07:42:09;;;;;;;10.33;7.67;;;;;;;;;;5013295;28;20401;-91
2022/12/14 07:44:37;;;;;;;7.40;6.17;;;;;;;;;;5032172;28;20410;-89
2022/12/14 07:47:05;;;;;;;7.97;6.17;;;;;;;;;;5028233;28;20511;-91
2022/12/14 07:49:34;;;;;;;13.47;8.90;;;;;;;;;;5026952;28;20451;-90
2022/12/14 07:52:00;;;;;;;8.33;7.33;;;;;;;;;;5032308;28;20412;-91
2022/12/14 07:54:27;;;;;;;8.07;6.20;;;;;;;;;;5027788;28;20429;-91
2022/12/14 07:56:53;;;;;;;9.10;5.30;;;;;;;;;;5035177;28;20429;-90
2022/12/14 07:59:19;;;;;;;6.93;6.10;;;;;;;;;;5015538;28;20524;-89
2022/12/14 08:01:45;;;;;;;9.47;7.50;;;;;;;;;;5033562;28;20994;-87
2022/12/14 08:04:17;;;;;;;8.03;7.33;;;;;;;;;;5030616;28;20523;-87
2022/12/14 08:06:48;;;;;;;14.97;8.13;;;;;;;;;;5029780;28;20426;-90
2022/12/14 08:09:16;;;;;;;7.03;3.83;;;;;;;;;;5035676;28;20418;-87
2022/12/14 08:11:44;;;;;;;11.43;7.80;;;;;;;;;;5035202;28;20437;-86
2022/12/14 08:14:12;;;;;;;7.13;6.37;;;;;;;;;;5034687;28;20410;-87
2022/12/14 08:16:38;;;;;;;10.80;6.23;;;;;;;;;;5036384;28;20553;-91
2022/12/14 08:19:06;;;;;;;12.43;8.40;;;;;;;;;;5038110;28;20470;-89
2022/12/14 08:21:33;;;;;;;4.60;4.20;;;;;;;;;;5032332;28;20437;-88
2022/12/14 08:24:00;;;;;;;18.33;9.23;;;;;;;;;;5032933;28;20437;-89
2022/12/14 08:26:28;;;;;;;13.47;10.17;;;;;;;;;;5033901;28;20468;-87
2022/12/14 08:28:55;;;;;;;9.17;8.27;;;;;;;;;;5031765;28;20422;-89
2022/12/14 08:31:22;;;;;;;10.87;8.93;;;;;;;;;;5029974;28;20426;-89
2022/12/14 08:33:55;;;;;;;7.77;6.77;;;;;;;;;;5029110;28;20410;-89
2022/12/14 08:36:26;;;;;;;5.57;4.87;;;;;;;;;;5012936;28;20518;-90
2022/12/14 08:39:09;;;;;;;13.43;9.90;;;;;;;;;;5030870;28;20472;-91
2022/12/14 08:41:36;;;;;;;13.90;11.70;;;;;;;;;;5029050;28;20456;-91
2022/12/14 08:44:03;;;;;;;7.47;6.30;;;;;;;;;;5019301;28;20501;-92
2022/12/14 08:46:29;;;;;;;11.63;8.87;;;;;;;;;;5021331;28;20444;-92
2022/12/14 08:48:57;;;;;;;13.37;8.33;;;;;;;;;;5022751;28;20418;-90
2022/12/14 08:51:23;;;;;;;8.77;7.97;;;;;;;;;;5020406;28;20410;-88
2022/12/14 08:53:49;;;;;;;10.37;8.60;;;;;;;;;;5013782;28;20915;-90
2022/12/14 08:56:17;;;;;;;15.83;9.43;;;;;;;;;;5015631;28;20414;-80
2022/12/14 08:58:43;;;;;;;15.40;7.90;;;;;;;;;;5017285;28;20470;-88
2022/12/14 09:01:12;;;;;;;7.50;6.07;;;;;;;;;;5017687;28;20414;-89
2022/12/14 09:03:38;;;;;;;10.83;7.30;;;;;;;;;;5017407;28;20407;-85
2022/12/14 09:06:05;;;;;;;4.40;3.27;;;;;;;;;;5028483;28;20414;-88
2022/12/14 09:08:32;;;;;;;13.23;9.33;;;;;;;;;;5019383;28;20817;-88
2022/12/14 09:10:58;;;;;;;10.40;5.43;;;;;;;;;;5032838;28;20452;-85
2022/12/14 09:13:24;;;;;;;16.10;6.70;;;;;;;;;;5026430;28;20413;-88
2022/12/14 09:15:57;;;;;;;8.93;8.13;;;;;;;;;;5033600;28;20475;-90
2022/12/14 09:18:23;;;;;;;9.03;8.07;;;;;;;;;;5021592;28;20425;-90
2022/12/14 09:20:53;;;;;;;17.93;8.20;;;;;;;;;;5019323;28;20425;-87
2022/12/14 09:23:18;;;;;;;12.93;10.70;;;;;;;;;;5019148;28;20422;-87
2022/12/14 09:25:44;;;;;;;11.90;6.90;;;;;;;;;;5036452;28;20421;-88
2022/12/14 09:28:10;;;;;;;15.30;7.97;;;;;;;;;;5021001;28;20766;-86
2022/12/14 09:30:36;;;;;;;14.07;10.33;;;;;;;;;;5036375;28;20423;-88
2022/12/14 09:33:02;;;;;;;12.27;7.40;;;;;;;;;;5036788;28;20410;-88
2022/12/14 09:35:28;;;;;;;11.57;7.20;;;;;;;;;;5036580;28;20404;-88
2022/12/14 09:37:54;;;;;;;8.93;7.23;;;;;;;;;;5018824;28;20464;-87
2022/12/14 09:40:22;;;;;;;8.60;5.47;;;;;;;;;;5063132;23;20569;-88
2022/12/14 09:42:55;;;;;;;8.87;7.73;;;;;;;;;;5018933;28;20415;-86
2022/12/14 09:45:25;;;;;;;15.80;8.37;;;;;;;;;;5020849;28;20423;-85
2022/12/14 09:47:50;;;;;;;20.70;11.73;;;;;;;;;;5029393;28;20428;-84
2022/12/14 09:50:18;;;;;;;12.10;7.80;;;;;;;;;;5010879;28;20771;-84
2022/12/14 09:52:49;;;;;;;17.33;9.57;;;;;;;;;;5014645;28;20774;-84
2022/12/14 09:55:19;;;;;;;13.27;9.23;;;;;;;;;;5004111;28;20437;-84
2022/12/14 09:57:46;;;;;;;16.47;10.50;;;;;;;;;;5003460;28;20521;-85
2022/12/14 10:00:17;;;;;;;10.73;8.80;;;;;;;;;;5008045;28;20536;-85
2022/12/14 10:02:43;;;;;;;11.20;6.87;;;;;;;;;;5005281;28;20410;-83
2022/12/14 10:05:32;;;;;;;10.53;8.27;;;;;;;;;;5093846;22;20484;-85
2022/12/14 10:08:01;;;;;;;11.80;8.93;;;;;;;;;;5105423;22;20475;-83
2022/12/14 10:10:27;;;;;;;16.33;9.70;;;;;;;;;;5052309;28;21036;-85
2022/12/14 10:13:03;;;;;;;12.87;10.33;;;;;;;;;;5051293;28;20524;-83
2022/12/14 10:15:32;;;;;;;8.77;6.43;;;;;;;;;;5047723;28;20437;-84
2022/12/14 10:18:09;;;;;;;15.60;9.27;;;;;;;;;;5051481;28;20421;-84
2022/12/14 10:20:35;;;;;;;13.80;9.53;;;;;;;;;;5053711;28;20561;-84
2022/12/14 10:23:01;;;;;;;12.57;9.50;;;;;;;;;;5054861;28;20973;-85
2022/12/14 10:25:29;;;;;;;7.60;6.87;;;;;;;;;;5053741;28;20484;-85
2022/12/14 10:27:56;;;;;;;13.50;7.17;;;;;;;;;;5053404;28;20465;-85
2022/12/14 10:30:23;;;;;;;11.77;7.40;;;;;;;;;;5053679;28;20429;-85
2022/12/14 10:33:05;;;;;;;7.30;6.47;;;;;;;;;;5053751;28;20502;-85
2022/12/14 10:35:37;;;;;;;11.60;9.10;;;;;;;;;;5053710;28;20770;-85
2022/12/14 10:38:05;;;;;;;16.70;11.30;;;;;;;;;;5053544;28;21061;-85
2022/12/14 10:40:32;;;;;;;15.90;11.43;;;;;;;;;;5053478;28;20544;-85
2022/12/14 10:43:08;;;;;;;12.83;9.20;;;;;;;;;;5053151;28;20507;-83
2022/12/14 10:45:45;;;;;;;12.10;9.00;;;;;;;;;;5054483;28;20420;-85
2022/12/14 10:48:17;;;;;;;18.07;11.70;;;;;;;;;;5033002;28;20417;-83
2022/12/14 10:50:46;;;;;;;17.27;9.50;;;;;;;;;;5032880;28;20449;-85
2022/12/14 10:53:15;;;;;;;12.33;8.47;;;;;;;;;;5032213;28;20808;-86
2022/12/14 10:55:42;;;;;;;16.27;9.67;;;;;;;;;;5032191;28;20432;-82
2022/12/14 10:58:10;;;;;;;14.03;8.77;;;;;;;;;;5032852;28;20812;-82
2022/12/14 11:00:36;;;;;;;14.17;9.40;;;;;;;;;;5031782;28;21009;-85
2022/12/14 11:03:04;;;;;;;18.37;9.17;;;;;;;;;;5033269;28;20414;-84
2022/12/14 11:05:36;;;;;;;15.17;8.00;;;;;;;;;;5031839;28;20932;-83
2022/12/14 11:08:02;;;;;;;13.57;9.53;;;;;;;;;;5032743;28;20559;-83
2022/12/14 11:10:29;;;;;;;11.33;8.03;;;;;;;;;;5033052;28;20942;-82
2022/12/14 11:13:00;;;;;;;14.50;7.63;;;;;;;;;;5036957;28;20416;-86
2022/12/14 11:15:33;;;;;;;14.10;8.60;;;;;;;;;;5032741;28;20422;-81
2022/12/14 11:18:06;;;;;;;17.37;11.27;;;;;;;;;;5033472;28;20512;-81
2022/12/14 11:20:33;;;;;;;15.57;9.27;;;;;;;;;;5038070;28;20975;-83
2022/12/14 11:23:07;;;;;;;13.47;9.30;;;;;;;;;;5054063;28;20414;-84
2022/12/14 11:25:38;;;;;;;12.07;8.37;;;;;;;;;;5052323;28;20452;-82
2022/12/14 11:28:30;;;;;;;14.67;9.63;;;;;;;;;;5053569;28;20505;-79
2022/12/14 11:31:06;;;;;;;13.60;9.07;;;;;;;;;;5053615;28;20797;-79
2022/12/14 11:33:38;;;;;;;13.77;9.33;;;;;;;;;;5053594;28;20394;-80
2022/12/14 11:36:05;;;;;;;15.83;8.90;;;;;;;;;;5053932;28;20927;-80
2022/12/14 11:38:31;;;;;;;13.17;7.47;;;;;;;;;;5053454;28;20488;-79
2022/12/14 11:40:58;;;;;;;18.93;10.03;;;;;;;;;;5053541;28;20428;-78
2022/12/14 11:43:26;;;;;;;16.37;10.03;;;;;;;;;;5053429;28;20500;-78
2022/12/14 11:45:54;;;;;;;14.37;9.03;;;;;;;;;;5053612;28;20421;-80
2022/12/14 11:48:21;;;;;;;14.67;8.67;;;;;;;;;;5052103;28;20423;-79
2022/12/14 11:50:48;;;;;;;13.10;8.20;;;;;;;;;;5053426;28;20510;-78
2022/12/14 11:53:15;;;;;;;13.90;9.33;;;;;;;;;;5053492;28;20753;-79
2022/12/14 11:55:51;;;;;;;12.23;8.53;;;;;;;;;;5053360;28;20795;-81
2022/12/14 11:58:28;;;;;;;14.33;9.10;;;;;;;;;;5052987;28;20409;-78
2022/12/14 12:00:58;;;;;;;13.47;9.03;;;;;;;;;;5053381;28;20777;-78
2022/12/14 12:03:34;;;;;;;13.57;8.80;;;;;;;;;;5051816;28;20431;-78
2022/12/14 12:06:08;;;;;;;21.17;12.50;;;;;;;;;;5051712;28;20546;-77
2022/12/14 12:08:36;;;;;;;14.73;9.27;;;;;;;;;;5052834;28;20461;-78
2022/12/14 12:11:04;;;;;;;17.30;9.73;;;;;;;;;;5052940;28;20407;-78
2022/12/14 12:13:40;;;;;;;14.50;8.17;;;;;;;;;;5052527;28;20500;-79
2022/12/14 12:16:06;;;;;;;13.07;9.80;;;;;;;;;;5053002;28;20876;-78
2022/12/14 12:18:35;;;;;;;12.83;7.87;;;;;;;;;;5052651;28;20403;-81
2022/12/14 12:21:07;;;;;;;14.73;9.57;;;;;;;;;;5052780;28;20940;-78
2022/12/14 12:23:36;;;;;;;14.27;8.73;;;;;;;;;;5052865;28;20419;-78
2022/12/14 12:26:12;;;;;;;15.80;10.60;;;;;;;;;;5052905;28;20864;-78
2022/12/14 12:28:42;;;;;;;13.40;8.67;;;;;;;;;;5052343;28;20409;-78
2022/12/14 12:31:10;;;;;;;12.90;8.57;;;;;;;;;;5056208;28;20448;-76
2022/12/14 12:33:47;;;;;;;14.53;10.70;;;;;;;;;;5054942;28;20413;-78
2022/12/14 12:36:16;;;;;;;15.13;9.80;;;;;;;;;;5053122;28;20495;-79
2022/12/14 12:39:01;;;;;;;12.10;9.00;;;;;;;;;;5041828;28;20421;-80
2022/12/14 12:41:43;;;;;;;13.70;9.07;;;;;;;;;;5031682;28;20418;-82
2022/12/14 12:44:28;;;;;;;14.23;9.00;;;;;;;;;;5030993;28;20995;-80
2022/12/14 12:47:15;;;;;;;15.40;9.67;;;;;;;;;;5031970;28;20441;-80
2022/12/14 12:49:41;;;;;;;14.53;9.13;;;;;;;;;;5032656;28;20409;-83
2022/12/14 12:52:15;;;;;;;15.83;10.83;;;;;;;;;;5031911;28;20932;-80
2022/12/14 12:54:46;;;;;;;12.30;9.07;;;;;;;;;;5035568;28;20481;-82
2022/12/14 12:57:13;;;;;;;16.23;10.00;;;;;;;;;;5033077;28;20421;-82
2022/12/14 12:59:47;;;;;;;12.03;9.07;;;;;;;;;;5040906;28;20459;-83
2022/12/14 13:02:26;;;;;;;17.73;9.90;;;;;;;;;;5053095;28;20414;-83
2022/12/14 13:04:52;;;;;;;15.23;8.77;;;;;;;;;;5052084;28;20399;-85
2022/12/14 13:07:18;;;;;;;9.20;8.33;;;;;;;;;;5052882;28;20472;-82
2022/12/14 13:09:49;;;;;;;11.97;7.53;;;;;;;;;;5052472;28;20400;-82
2022/12/14 13:12:28;;;;;;;14.93;9.47;;;;;;;;;;5050979;28;20422;-80
2022/12/14 13:14:55;;;;;;;17.50;10.60;;;;;;;;;;5050946;28;20404;-83
2022/12/14 13:17:35;;;;;;;15.97;9.20;;;;;;;;;;5052182;28;20493;-82
2022/12/14 13:20:08;;;;;;;14.77;8.37;;;;;;;;;;5052278;28;20459;-81
2022/12/14 13:22:35;;;;;;;11.07;9.40;;;;;;;;;;5051996;28;20492;-82
2022/12/14 13:25:05;;;;;;;16.50;10.70;;;;;;;;;;5050870;28;20424;-81
2022/12/14 13:27:49;;;;;;;12.60;8.20;;;;;;;;;;5052200;28;20423;-82
2022/12/14 13:30:21;;;;;;;17.43;9.50;;;;;;;;;;5050265;28;20942;-81
2022/12/14 13:33:03;;;;;;;14.17;9.43;;;;;;;;;;5051700;28;20901;-81
2022/12/14 13:35:32;;;;;;;19.57;9.17;;;;;;;;;;5050171;28;20417;-81
2022/12/14 13:38:17;;;;;;;17.07;10.87;;;;;;;;;;5051737;28;20409;-80
2022/12/14 13:41:01;;;;;;;16.20;10.50;;;;;;;;;;5051288;28;20517;-82
2022/12/14 13:43:34;;;;;;;12.80;7.80;;;;;;;;;;5032957;28;20471;-83
2022/12/14 13:46:05;;;;;;;15.67;9.20;;;;;;;;;;5035120;28;20764;-82
2022/12/14 13:48:35;;;;;;;15.37;8.90;;;;;;;;;;5035089;28;20444;-81
2022/12/14 13:51:02;;;;;;;14.23;8.60;;;;;;;;;;5042764;28;20413;-81
2022/12/14 13:53:31;;;;;;;11.53;9.80;;;;;;;;;;5042579;28;20416;-81
2022/12/14 13:55:58;;;;;;;12.40;9.63;;;;;;;;;;5048853;28;20827;-83
2022/12/14 13:58:29;;;;;;;19.00;11.10;;;;;;;;;;5043646;28;20411;-82
2022/12/14 14:00:55;;;;;;;12.57;8.53;;;;;;;;;;5049491;28;20523;-83
2022/12/14 14:03:33;;;;;;;11.77;8.37;;;;;;;;;;5054682;28;20491;-85
2022/12/14 14:06:12;;;;;;;10.30;8.30;;;;;;;;;;5054928;28;20415;-83
2022/12/14 14:08:41;;;;;;;17.80;8.53;;;;;;;;;;5053108;28;20497;-82
2022/12/14 14:11:25;;;;;;;12.83;10.60;;;;;;;;;;5054703;28;20454;-82
2022/12/14 14:13:57;;;;;;;18.00;9.80;;;;;;;;;;5061087;28;20418;-83
2022/12/14 14:16:32;;;;;;;14.10;10.80;;;;;;;;;;5056901;28;20797;-82
2022/12/14 14:19:01;;;;;;;21.67;10.97;;;;;;;;;;5056435;28;20470;-81
2022/12/14 14:21:32;;;;;;;16.43;9.87;;;;;;;;;;5054725;28;20406;-83
2022/12/14 14:24:00;;;;;;;13.93;9.30;;;;;;;;;;5054951;28;20412;-83
2022/12/14 14:26:32;;;;;;;15.17;8.97;;;;;;;;;;5054716;28;20821;-82
2022/12/14 14:29:18;;;;;;;17.57;7.60;;;;;;;;;;5049220;28;20420;-83
2022/12/14 14:31:46;;;;;;;13.30;8.83;;;;;;;;;;5036964;28;20416;-82
2022/12/14 14:34:23;;;;;;;15.80;8.67;;;;;;;;;;5034251;28;20492;-81
2022/12/14 14:36:55;;;;;;;10.80;7.10;;;;;;;;;;5033088;28;20436;-83
2022/12/14 14:39:30;;;;;;;13.97;9.33;;;;;;;;;;5034262;28;20456;-80
2022/12/14 14:41:56;;;;;;;15.10;9.10;;;;;;;;;;5041977;28;20419;-83
2022/12/14 14:44:32;;;;;;;15.33;9.50;;;;;;;;;;5035772;28;20523;-82
2022/12/14 14:46:59;;;;;;;13.10;9.03;;;;;;;;;;5032895;28;20409;-81
2022/12/14 14:49:33;;;;;;;17.50;10.97;;;;;;;;;;5034157;28;20748;-79
2022/12/14 14:52:18;;;;;;;20.33;13.23;;;;;;;;;;5037040;28;20411;-82
2022/12/14 14:54:44;;;;;;;16.40;9.67;;;;;;;;;;5053697;28;20447;-81
2022/12/14 14:57:28;;;;;;;14.27;8.80;;;;;;;;;;5053326;28;20404;-82